aviador You're here:

PAKF Decoded Metar

FALSE PASS in AK, US
Report Time2017-06-23 22:01:00
UTC Time2017-06-23 22:33:01
Flight Rules mvfr MVFR
Wind020° at 03 kt
W.Decomp.*RWY 32: 2.2 kt HW 2.1 kt RCW
W.Rank020° ranks 30
Current wind is below 020° avg. (7.9)
Visibility9999 m
Phenomena:N/A
Clouds:Overcast 017 Hf
Expected CloudBase > 800 ft AGL from Temp-Dew spread
Ceiling1,700 ft
Temp09°C (ISA -6)
Dew Point07°C (87% RH)
AAT7.2°C
QNH1028 hPa
Density Alt-1,066 ft
Elevation19 ft
Report Wrong Elevation
Raw Report
PAKF 232201Z AUTO 02003KT 10SM OVC017 09/07 A3036 RMK AO2 SLP375
T00940067 $=

Extra information for PAKF:More info

Metar Taf Metar & Taf Last 4 Metars F.Rules Stats Wind Profile Meteogram Temp Stats Airport Information Weather charts Add Link Nearby VenuesMetar ALERT Operation Metar Decoded Social comments